Bristol, New Hampshire
Current Conditions -  °F | °C
As of 10:15 AM on Tuesday 21 Oct 2014 (Local Time) from K1P1 Reporting Station
Overcast Overcast  
Wind Chill: 44°   Ceiling: 4800
Heat Index: 44°   Visibility: 10mi
Dew Point: 44°   Wind: 0mph
Humidity: 100%   Direction: NA
Pressure: 30.02"   Gusts: NA
Location:  43.6°N, 71.75°W
Report Text: K1P1 211415Z AUTO 00000KT 10SM BKN048 BKN070 OVC080 07/07 A3002 RMK AO2 T00670067
Loading
Personal Weather Stations






























Interactive Weather Map
Tropical Storm Tracking
New forecast layout! Learn more

10-Day Weather Forecast

Advertisements
Track Severe Weather on mobile